Time;durP1;ratioP1;P1;durP2;ratioP2;P2;SDS_P1;SDS_P2;PMS_P1;PMS_P2;Temp;Humidity;BMP_temperature;BMP_pressure;BME280_temperature;BME280_humidity;BME280_pressure;Samples;Min_cycle;Max_cycle;Signal;HPM_P1;HPM_P2
2020/12/30 00:01:28;;;;;;;5.72;1.58;;;;;;;11.54;76.22;99136.81;5093319;28;20035;-75
2020/12/30 00:03:54;;;;;;;12.20;2.15;;;;;;;11.54;75.95;99142.38;5094363;28;20035;-74
2020/12/30 00:06:20;;;;;;;7.57;1.67;;;;;;;11.49;76.49;99139.97;5093734;28;20024;-74
2020/12/30 00:08:47;;;;;;;10.57;1.85;;;;;;;11.50;75.83;99136.03;5093564;28;20024;-75
2020/12/30 00:11:13;;;;;;;10.57;1.73;;;;;;;11.51;75.59;99143.19;5093729;28;20049;-74
2020/12/30 00:13:39;;;;;;;8.55;1.60;;;;;;;11.50;76.43;99147.16;5093783;28;20459;-74
2020/12/30 00:16:04;;;;;;;9.38;2.08;;;;;;;11.65;75.85;99145.19;5094834;28;20028;-74
2020/12/30 00:18:30;;;;;;;8.43;1.70;;;;;;;11.59;75.66;99135.63;5093881;28;20352;-74
2020/12/30 00:20:56;;;;;;;4.88;1.67;;;;;;;11.64;75.48;99148.38;5093533;28;20454;-74
2020/12/30 00:23:23;;;;;;;15.40;2.05;;;;;;;11.65;74.82;99150.75;5093289;28;20032;-74
2020/12/30 00:25:49;;;;;;;13.23;1.88;;;;;;;11.72;74.72;99148.00;5093272;28;20035;-74
2020/12/30 00:28:15;;;;;;;8.05;2.45;;;;;;;11.62;75.10;99146.00;5093734;28;20105;-74
2020/12/30 00:30:40;;;;;;;11.02;2.20;;;;;;;11.67;75.50;99151.19;5092672;28;20467;-74
2020/12/30 00:33:06;;;;;;;10.65;1.58;;;;;;;11.62;75.07;99159.13;5093625;28;20028;-74
2020/12/30 00:35:31;;;;;;;4.90;1.40;;;;;;;11.54;75.29;99166.66;5093197;28;20024;-74
2020/12/30 00:37:57;;;;;;;12.38;3.75;;;;;;;11.29;74.20;99180.50;5093143;28;20038;-74
2020/12/30 00:40:22;;;;;;;4.20;2.00;;;;;;;11.17;75.12;99166.94;5092826;28;20500;-74
2020/12/30 00:42:48;;;;;;;8.68;1.27;;;;;;;11.01;73.74;99173.63;5093089;28;20036;-73
2020/12/30 00:45:13;;;;;;;4.55;1.50;;;;;;;10.96;75.92;99151.72;5110075;28;20028;-75
2020/12/30 00:47:39;;;;;;;11.70;1.58;;;;;;;10.85;77.48;99158.44;5092959;28;20481;-74
2020/12/30 00:50:06;;;;;;;5.63;1.45;;;;;;;10.89;77.79;99156.47;5092826;28;20067;-75
2020/12/30 00:52:32;;;;;;;6.65;1.90;;;;;;;10.85;78.96;99166.78;5093174;28;20437;-75
2020/12/30 00:54:57;;;;;;;7.35;1.45;;;;;;;10.74;79.73;99166.72;5092461;28;20087;-74
2020/12/30 00:57:23;;;;;;;8.82;2.72;;;;;;;10.72;80.27;99169.09;5092780;28;20073;-73
2020/12/30 00:59:48;;;;;;;8.55;1.77;;;;;;;10.68;81.29;99165.50;5092969;28;20085;-74
2020/12/30 01:02:14;;;;;;;7.22;2.10;;;;;;;10.65;82.20;99166.25;5092758;28;20028;-76
2020/12/30 01:04:40;;;;;;;8.40;1.90;;;;;;;10.64;82.13;99167.44;5092745;28;20035;-74
2020/12/30 01:07:05;;;;;;;5.78;1.48;;;;;;;10.56;82.47;99149.13;5092677;28;20036;-74
2020/12/30 01:09:31;;;;;;;11.05;1.90;;;;;;;10.62;81.95;99158.69;5092838;28;20035;-74
2020/12/30 01:12:01;;;;;;;9.50;1.67;;;;;;;10.73;82.31;99159.56;5093015;28;20061;-74
2020/12/30 01:14:27;;;;;;;5.72;1.30;;;;;;;10.72;80.78;99144.84;5092350;28;20070;-74
2020/12/30 01:16:59;;;;;;;8.55;1.55;;;;;;;10.80;80.91;99154.03;5092360;28;20031;-74
2020/12/30 01:19:25;;;;;;;4.30;1.10;;;;;;;10.83;80.24;99142.13;5092308;28;20052;-74
2020/12/30 01:21:51;;;;;;;11.98;1.48;;;;;;;10.86;80.09;99151.66;5092847;28;20132;-74
2020/12/30 01:24:17;;;;;;;12.77;1.98;;;;;;;10.83;80.16;99146.91;5092530;28;20024;-74
2020/12/30 01:26:46;;;;;;;6.40;1.73;;;;;;;10.89;80.43;99142.56;5092046;28;20490;-74
2020/12/30 01:29:11;;;;;;;9.98;2.20;;;;;;;10.94;79.52;99142.97;5092376;28;20029;-74
2020/12/30 01:31:37;;;;;;;6.88;1.17;;;;;;;10.90;79.71;99142.16;5092232;28;20046;-74
2020/12/30 01:34:05;;;;;;;7.72;1.40;;;;;;;10.95;79.47;99141.00;5092477;28;20040;-74
2020/12/30 01:36:32;;;;;;;10.75;1.80;;;;;;;11.00;78.63;99158.13;5092062;28;20031;-74
2020/12/30 01:38:57;;;;;;;7.53;2.03;;;;;;;10.95;79.40;99139.00;5092056;28;20024;-74
2020/12/30 01:41:24;;;;;;;7.75;1.30;;;;;;;11.03;79.35;99150.97;5092076;28;20024;-74
2020/12/30 01:43:56;;;;;;;6.28;1.58;;;;;;;11.03;78.81;99148.19;5092046;28;20036;-74
2020/12/30 01:46:39;;;;;;;14.43;1.67;;;;;;;11.09;78.48;99151.41;5093321;28;20077;-76
2020/12/30 01:49:07;;;;;;;7.43;1.40;;;;;;;11.06;78.98;99154.94;5092483;28;20034;-73
2020/12/30 01:51:34;;;;;;;8.65;2.22;;;;;;;11.05;79.22;99156.16;5109430;28;20028;-73
2020/12/30 01:54:01;;;;;;;8.75;1.88;;;;;;;11.08;78.92;99149.78;5095926;28;20056;-74
2020/12/30 01:56:30;;;;;;;7.35;1.30;;;;;;;11.10;77.99;99153.00;5096750;28;20085;-76
2020/12/30 01:58:56;;;;;;;7.47;1.30;;;;;;;11.07;78.36;99148.19;5096522;28;20089;-74
2020/12/30 02:01:25;;;;;;;9.23;1.48;;;;;;;11.19;76.13;99153.44;5096465;28;20020;-74
2020/12/30 02:03:57;;;;;;;3.47;1.65;;;;;;;11.25;75.65;99144.31;5096695;28;20473;-74
2020/12/30 02:06:23;;;;;;;7.00;1.73;;;;;;;11.28;75.11;99151.06;5096960;28;20028;-76
2020/12/30 02:08:49;;;;;;;5.45;1.48;;;;;;;11.34;74.79;99154.25;5096329;28;20028;-74
2020/12/30 02:11:15;;;;;;;6.32;1.20;;;;;;;11.42;74.24;99159.47;5097825;28;20070;-74
2020/12/30 02:13:40;;;;;;;3.92;1.45;;;;;;;11.39;73.71;99151.88;5096245;28;20055;-74
2020/12/30 02:16:06;;;;;;;8.45;1.67;;;;;;;11.37;73.99;99148.72;5096161;28;20035;-74
2020/12/30 02:18:31;;;;;;;6.82;1.63;;;;;;;11.41;73.56;99155.09;5096075;28;20024;-74
2020/12/30 02:20:57;;;;;;;7.57;1.60;;;;;;;11.40;73.44;99158.25;5096352;28;20032;-75
2020/12/30 02:23:24;;;;;;;5.28;1.92;;;;;;;11.42;73.42;99156.69;5096119;28;20039;-74
2020/12/30 02:25:49;;;;;;;5.22;1.40;;;;;;;11.38;72.90;99144.72;5096038;28;20032;-74
2020/12/30 02:28:15;;;;;;;4.68;1.50;;;;;;;11.43;71.96;99140.78;5095982;28;20135;-74
2020/12/30 02:30:40;;;;;;;5.10;1.42;;;;;;;11.36;71.76;99137.97;5096921;28;20028;-74
2020/12/30 02:33:09;;;;;;;7.25;1.42;;;;;;;11.33;70.18;99145.09;5096149;28;20446;-76
2020/12/30 02:35:35;;;;;;;7.45;1.45;;;;;;;11.34;69.75;99138.34;5095762;28;20035;-74
2020/12/30 02:38:01;;;;;;;6.00;1.33;;;;;;;11.43;70.28;99138.78;5095305;28;20024;-74
2020/12/30 02:40:27;;;;;;;4.15;1.20;;;;;;;11.34;70.75;99137.56;5095201;28;20124;-74
2020/12/30 02:42:52;;;;;;;7.32;1.95;;;;;;;11.43;70.63;99141.56;5095450;28;20123;-74
2020/12/30 02:45:18;;;;;;;7.30;1.58;;;;;;;11.47;71.92;99156.31;5095223;28;20523;-74
2020/12/30 02:47:44;;;;;;;12.80;1.77;;;;;;;11.46;73.25;99151.94;5095129;28;20028;-74
2020/12/30 02:50:10;;;;;;;19.63;2.60;;;;;;;11.44;74.37;99150.72;5096737;28;20078;-74
2020/12/30 02:52:35;;;;;;;5.57;2.08;;;;;;;11.33;73.54;99150.69;5095754;28;20359;-75
2020/12/30 02:55:01;;;;;;;11.48;1.45;;;;;;;11.22;73.88;99155.41;5094706;28;20383;-73
2020/12/30 02:57:26;;;;;;;6.50;1.60;;;;;;;11.16;73.45;99160.56;5095264;28;20126;-74
2020/12/30 02:59:58;;;;;;;7.18;1.70;;;;;;;11.16;73.73;99154.19;5095312;28;20032;-74
2020/12/30 03:02:25;;;;;;;7.00;1.38;;;;;;;11.15;74.57;99172.09;5095025;28;20077;-74
2020/12/30 03:04:52;;;;;;;4.68;1.42;;;;;;;11.06;75.19;99152.16;5078087;28;20471;-74
2020/12/30 03:07:18;;;;;;;7.68;1.83;;;;;;;11.06;74.42;99147.41;5096370;28;20023;-74
2020/12/30 03:09:44;;;;;;;5.70;1.23;;;;;;;11.00;74.04;99148.97;5095439;28;20359;-74
2020/12/30 03:12:10;;;;;;;3.28;1.00;;;;;;;11.02;73.82;99152.16;5096387;28;20099;-74
2020/12/30 03:14:35;;;;;;;7.05;1.20;;;;;;;10.97;74.44;99146.94;5094760;28;20474;-74
2020/12/30 03:17:00;;;;;;;7.93;0.93;;;;;;;10.94;74.39;99147.75;5094854;28;20031;-74
2020/12/30 03:19:26;;;;;;;7.43;1.52;;;;;;;10.93;74.27;99144.16;5094743;28;20382;-74
2020/12/30 03:21:52;;;;;;;6.43;1.95;;;;;;;10.89;73.92;99139.78;5094419;28;20032;-74
2020/12/30 03:24:18;;;;;;;9.48;1.23;;;;;;;10.88;73.37;99158.47;5094342;28;20032;-74
2020/12/30 03:26:44;;;;;;;5.18;0.98;;;;;;;10.87;73.78;99151.31;5094697;28;20031;-74
2020/12/30 03:29:09;;;;;;;6.03;1.27;;;;;;;10.79;73.85;99146.06;5094261;28;20043;-74
2020/12/30 03:31:35;;;;;;;7.88;1.25;;;;;;;10.77;74.92;99149.25;5094487;28;20054;-74
2020/12/30 03:34:00;;;;;;;3.28;1.42;;;;;;;10.82;74.48;99151.66;5095243;28;20024;-74
2020/12/30 03:36:27;;;;;;;6.07;1.42;;;;;;;10.80;75.24;99145.69;5094005;28;20056;-74
2020/12/30 03:38:52;;;;;;;9.07;1.88;;;;;;;10.70;75.54;99149.19;5094630;28;20032;-74
2020/12/30 03:41:18;;;;;;;7.45;1.95;;;;;;;10.63;76.08;99151.94;5094209;28;20036;-74
2020/12/30 03:43:44;;;;;;;11.52;1.58;;;;;;;10.55;76.56;99167.00;5094256;28;20532;-74
2020/12/30 03:46:10;;;;;;;7.50;2.15;;;;;;;10.47;77.42;99175.28;5093870;28;20023;-74
2020/12/30 03:48:36;;;;;;;3.63;1.23;;;;;;;10.37;78.48;99178.00;5093860;28;20032;-74
2020/12/30 03:51:01;;;;;;;14.25;3.15;;;;;;;10.30;79.00;99173.19;5093839;28;20073;-74
2020/12/30 03:53:27;;;;;;;12.02;2.60;;;;;;;10.24;79.35;99185.84;5094531;28;20145;-74
2020/12/30 03:55:53;;;;;;;9.23;2.38;;;;;;;10.20;79.93;99190.53;5093490;28;20379;-74
2020/12/30 03:58:19;;;;;;;8.52;1.85;;;;;;;10.11;80.50;99199.19;5093839;28;20067;-74
2020/12/30 04:00:44;;;;;;;10.73;3.58;;;;;;;10.04;81.20;99206.69;5093656;28;20068;-74
2020/12/30 04:03:10;;;;;;;8.70;3.03;;;;;;;10.03;81.72;99208.66;5093546;28;20117;-74
2020/12/30 04:05:35;;;;;;;13.95;2.90;;;;;;;10.00;81.34;99211.41;5093514;28;20040;-74
2020/12/30 04:08:01;;;;;;;6.68;3.50;;;;;;;9.97;81.92;99218.53;5093512;28;20032;-74
2020/12/30 04:10:26;;;;;;;5.38;2.90;;;;;;;9.96;82.02;99201.06;5093704;28;20196;-74
2020/12/30 04:12:52;;;;;;;8.20;3.15;;;;;;;10.00;82.50;99197.50;5093646;28;20490;-74
2020/12/30 04:15:19;;;;;;;17.60;4.47;;;;;;;9.86;82.55;99189.84;5093941;28;20040;-74
2020/12/30 04:17:44;;;;;;;10.00;3.38;;;;;;;9.85;83.00;99202.13;5093421;28;20028;-74
2020/12/30 04:20:10;;;;;;;11.23;4.00;;;;;;;9.77;83.64;99212.38;5093306;28;20116;-74
2020/12/30 04:22:35;;;;;;;5.88;2.58;;;;;;;9.71;84.92;99200.00;5093825;28;20024;-73
2020/12/30 04:25:01;;;;;;;11.50;3.50;;;;;;;9.67;85.01;99199.16;5093399;28;20074;-74
2020/12/30 04:27:26;;;;;;;8.07;2.53;;;;;;;9.68;85.25;99209.88;5093760;28;20035;-73
2020/12/30 04:29:52;;;;;;;7.82;2.15;;;;;;;9.63;84.19;99214.97;5093483;28;20390;-73
2020/12/30 04:32:17;;;;;;;5.78;2.35;;;;;;;9.64;83.83;99211.03;5094127;28;20028;-73
2020/12/30 04:34:43;;;;;;;7.20;1.75;;;;;;;9.58;83.07;99218.09;5093304;28;20036;-75
2020/12/30 04:37:11;;;;;;;10.48;1.90;;;;;;;9.51;83.44;99220.81;5093256;28;20085;-75
2020/12/30 04:39:36;;;;;;;4.05;1.38;;;;;;;9.44;84.10;99216.75;5093928;28;20032;-76
2020/12/30 04:42:02;;;;;;;3.80;1.15;;;;;;;9.51;83.97;99220.81;5093705;28;20101;-76
2020/12/30 04:44:33;;;;;;;5.70;1.05;;;;;;;9.34;83.99;99209.09;5092849;28;20032;-74
2020/12/30 04:46:59;;;;;;;3.78;1.05;;;;;;;9.35;83.87;99215.47;5093640;28;20083;-74
2020/12/30 04:49:25;;;;;;;9.98;2.30;;;;;;;9.30;83.57;99211.03;5094359;28;20116;-74
2020/12/30 04:51:53;;;;;;;10.55;2.67;;;;;;;9.27;84.13;99208.19;5093285;28;20111;-75
2020/12/30 04:54:20;;;;;;;3.17;1.95;;;;;;;9.31;83.96;99211.84;5092674;28;20076;-75
2020/12/30 04:56:55;;;;;;;2.90;1.98;;;;;;;9.24;84.44;99186.78;5094573;28;20415;-73
2020/12/30 04:59:22;;;;;;;4.15;1.63;;;;;;;9.25;84.18;99197.50;5092527;28;20056;-74
2020/12/30 05:02:04;;;;;;;3.22;0.95;;;;;;;9.27;84.39;99203.47;5092481;28;20588;-74
2020/12/30 05:04:37;;;;;;;4.00;1.75;;;;;;;9.28;84.77;99199.53;5093505;28;20393;-74
2020/12/30 05:07:08;;;;;;;2.87;1.27;;;;;;;9.22;84.69;99203.00;5093005;28;20363;-74
2020/12/30 05:09:38;;;;;;;3.60;1.17;;;;;;;9.15;84.24;99200.94;5092435;28;20020;-74
2020/12/30 05:12:14;;;;;;;5.03;1.15;;;;;;;9.00;84.77;99188.03;5094227;28;20107;-74
2020/12/30 05:14:40;;;;;;;4.57;1.30;;;;;;;9.06;84.57;99209.56;5093093;28;20386;-74
2020/12/30 05:17:07;;;;;;;6.20;1.23;;;;;;;8.98;84.40;99207.84;5093203;28;20044;-74
2020/12/30 05:19:33;;;;;;;5.22;1.40;;;;;;;9.01;84.71;99209.88;5075956;28;20028;-74
2020/12/30 05:21:58;;;;;;;3.47;1.20;;;;;;;8.98;84.59;99218.16;5092571;28;20378;-74
2020/12/30 05:24:24;;;;;;;6.43;1.50;;;;;;;8.96;84.75;99214.97;5092694;28;20031;-74
2020/12/30 05:26:51;;;;;;;5.55;1.30;;;;;;;8.93;85.06;99228.38;5091323;28;20467;-74
2020/12/30 05:29:17;;;;;;;6.78;1.58;;;;;;;8.96;85.20;99221.31;5092331;28;20054;-74
2020/12/30 05:31:54;;;;;;;4.93;2.13;;;;;;;8.89;85.26;99208.16;5092376;28;20116;-74
2020/12/30 05:34:22;;;;;;;4.03;2.33;;;;;;;8.95;85.02;99214.16;5092118;28;20085;-74
2020/12/30 05:36:48;;;;;;;3.88;1.67;;;;;;;8.89;85.09;99212.88;5075387;28;20039;-74
2020/12/30 05:39:27;;;;;;;5.50;1.88;;;;;;;8.98;84.87;99220.91;5092041;28;20028;-74
2020/12/30 05:42:12;;;;;;;4.15;1.50;;;;;;;8.99;85.33;99237.19;5092031;28;20093;-74
2020/12/30 05:44:40;;;;;;;4.35;1.65;;;;;;;8.98;85.16;99229.25;5092734;28;20035;-74
2020/12/30 05:47:26;;;;;;;3.90;1.40;;;;;;;9.03;85.57;99228.91;5093289;28;20034;-74
2020/12/30 05:49:54;;;;;;;3.80;1.20;;;;;;;8.93;84.86;99225.63;5092444;28;20031;-74
2020/12/30 05:52:28;;;;;;;2.33;1.60;;;;;;;8.98;84.95;99240.34;5094013;28;20085;-74
2020/12/30 05:54:53;;;;;;;;;;;;;;;9.01;84.93;99239.59;5104498;28;20101;-74
2020/12/30 05:57:32;;;;;;;6.13;1.45;;;;;;;9.06;85.41;99242.84;5095388;28;19912;-74
2020/12/30 06:00:13;;;;;;;5.03;1.65;;;;;;;8.91;85.33;99239.06;5111175;28;20424;-74
2020/12/30 06:02:44;;;;;;;3.88;1.17;;;;;;;8.86;85.24;99239.38;5095191;28;20092;-74
2020/12/30 06:05:17;;;;;;;4.32;2.30;;;;;;;8.91;83.21;99224.41;5078643;28;20027;-74
2020/12/30 06:07:45;;;;;;;5.57;1.27;;;;;;;9.01;81.21;99222.97;5095767;28;20042;-74
2020/12/30 06:10:13;;;;;;;6.63;2.55;;;;;;;9.02;83.40;99225.34;5113354;28;20393;-74
2020/12/30 06:12:46;;;;;;;1.00;1.00;;;;;;;8.99;84.93;99219.75;5095302;28;20028;-74
2020/12/30 06:15:20;;;;;;;1.80;1.52;;;;;;;8.89;84.24;99216.47;5095746;28;20351;-74
2020/12/30 06:17:59;;;;;;;2.55;0.90;;;;;;;8.72;84.78;99191.22;5094977;28;20027;-74
2020/12/30 06:20:30;;;;;;;4.72;1.13;;;;;;;8.83;84.94;99206.84;5095306;28;20466;-74
2020/12/30 06:23:01;;;;;;;2.95;1.75;;;;;;;8.74;85.10;99203.56;5095176;28;20418;-74
2020/12/30 06:25:28;;;;;;;1.10;0.90;;;;;;;8.85;83.24;99215.59;5113491;28;20020;-74
2020/12/30 06:27:54;;;;;;;4.68;3.08;;;;;;;8.94;83.21;99207.00;5095025;28;20030;-74
2020/12/30 06:30:20;;;;;;;6.47;2.78;;;;;;;9.15;82.36;99212.03;5095270;28;20027;-74
2020/12/30 06:32:46;;;;;;;9.88;8.30;;;;;;;8.95;82.48;99218.88;5112137;28;20040;-74
2020/12/30 06:35:12;;;;;;;3.90;2.20;;;;;;;8.85;82.74;99218.38;5095535;28;20031;-74
2020/12/30 06:37:41;;;;;;;3.55;2.63;;;;;;;8.86;82.92;99228.28;5094781;28;20107;-74
2020/12/30 06:40:17;;;;;;;10.15;4.88;;;;;;;8.89;83.46;99233.09;5116823;28;20360;-74
2020/12/30 06:42:44;;;;;;;8.07;5.22;;;;;;;8.92;84.41;99232.34;5099235;28;20085;-74
2020/12/30 06:45:14;;;;;;;9.43;3.35;;;;;;;8.91;83.82;99230.75;5099267;28;20034;-74
2020/12/30 06:48:02;;;;;;;4.88;1.90;;;;;;;8.78;83.66;99232.13;5082266;28;20058;-76
2020/12/30 06:50:28;;;;;;;4.15;1.77;;;;;;;8.84;83.71;99235.38;5098834;28;20027;-74
2020/12/30 06:52:54;;;;;;;2.78;2.00;;;;;;;8.86;84.29;99238.59;5116756;28;20522;-76
2020/12/30 06:55:43;;;;;;;1.88;1.70;;;;;;;8.87;83.93;99238.22;5094628;28;20052;-76
2020/12/30 06:58:08;;;;;;;3.97;2.10;;;;;;;8.88;83.12;99239.00;5099478;28;20105;-76
2020/12/30 07:00:38;;;;;;;2.08;1.50;;;;;;;8.82;83.11;99238.53;5095379;28;20028;-76
2020/12/30 07:03:18;;;;;;;6.50;3.15;;;;;;;8.92;83.71;99240.66;5095435;28;20020;-76
2020/12/30 07:05:45;;;;;;;7.38;5.72;;;;;;;8.88;83.78;99242.59;5095915;28;20470;-76
2020/12/30 07:08:12;;;;;;;11.70;7.78;;;;;;;8.92;84.21;99243.44;5094689;28;20028;-74
2020/12/30 07:10:45;;;;;;;11.38;5.05;;;;;;;8.93;84.21;99250.59;5096018;28;20077;-73
2020/12/30 07:13:26;;;;;;;5.55;2.50;;;;;;;8.75;83.03;99230.13;5094573;28;20031;-74
2020/12/30 07:16:13;;;;;;;4.28;2.70;;;;;;;8.85;83.54;99254.44;5095084;28;20028;-74
2020/12/30 07:18:41;;;;;;;5.07;3.05;;;;;;;8.91;83.66;99266.00;5094504;28;20187;-74
2020/12/30 07:21:14;;;;;;;6.55;3.70;;;;;;;9.00;84.08;99271.28;5094510;28;20079;-74
2020/12/30 07:23:42;;;;;;;4.80;3.40;;;;;;;9.00;84.26;99271.28;5095819;28;20035;-74
2020/12/30 07:26:16;;;;;;;3.90;2.25;;;;;;;8.96;84.39;99268.47;5095972;28;20370;-74
2020/12/30 07:28:43;;;;;;;3.65;2.17;;;;;;;9.01;84.26;99261.81;5094446;28;20039;-74
2020/12/30 07:31:09;;;;;;;5.43;2.45;;;;;;;9.10;83.81;99270.63;5094364;28;20024;-74
2020/12/30 07:33:37;;;;;;;3.15;2.17;;;;;;;9.17;82.88;99260.44;5095915;28;20035;-74
2020/12/30 07:36:15;;;;;;;3.05;2.20;;;;;;;9.24;82.54;99245.84;5094754;28;20036;-75
2020/12/30 07:38:40;;;;;;;4.97;2.42;;;;;;;9.39;82.05;99253.19;5094448;28;20023;-74
2020/12/30 07:41:12;;;;;;;3.83;1.98;;;;;;;9.68;81.03;99267.41;5095001;28;20040;-74
2020/12/30 07:44:04;;;;;;;5.72;3.25;;;;;;;9.89;80.95;99267.66;5094905;28;20402;-74
2020/12/30 07:46:31;;;;;;;5.97;2.88;;;;;;;10.13;81.08;99265.53;5108548;28;20417;-74
2020/12/30 07:49:16;;;;;;;5.65;4.57;;;;;;;10.23;80.63;99259.28;5094248;28;20118;-74
2020/12/30 07:51:53;;;;;;;5.57;2.90;;;;;;;10.39;79.77;99272.97;5093628;28;20051;-74
2020/12/30 07:54:21;;;;;;;6.22;3.67;;;;;;;10.42;80.05;99267.41;5094280;28;20048;-74
2020/12/30 07:56:49;;;;;;;3.60;2.40;;;;;;;10.52;78.98;99268.69;5093987;28;20024;-74
2020/12/30 07:59:25;;;;;;;2.75;2.15;;;;;;;10.58;79.48;99274.69;5094271;28;20038;-75
2020/12/30 08:02:04;;;;;;;3.65;2.30;;;;;;;10.39;79.21;99278.53;5093508;28;20036;-73
2020/12/30 08:04:32;;;;;;;5.13;2.83;;;;;;;10.34;78.36;99265.75;5095529;28;20027;-73
2020/12/30 08:06:58;;;;;;;5.70;2.30;;;;;;;10.25;79.06;99284.75;5093886;28;20031;-74
2020/12/30 08:09:29;;;;;;;3.45;2.70;;;;;;;10.26;79.67;99297.44;5094150;28;20028;-73
2020/12/30 08:11:57;;;;;;;6.07;2.50;;;;;;;10.14;79.79;99295.72;5093905;28;20027;-74
2020/12/30 08:14:27;;;;;;;3.40;2.33;;;;;;;10.14;81.38;99301.28;5093526;28;20035;-77
2020/12/30 08:16:53;;;;;;;10.02;4.15;;;;;;;10.23;81.03;99293.47;5094975;28;20073;-75
2020/12/30 08:19:32;;;;;;;7.88;3.85;;;;;;;10.10;80.69;99296.84;5110721;28;20032;-74
2020/12/30 08:22:01;;;;;;;8.77;4.57;;;;;;;10.09;80.74;99298.03;5093686;28;20028;-74
2020/12/30 08:24:28;;;;;;;3.95;2.80;;;;;;;10.18;80.20;99296.56;5093518;28;20074;-74
2020/12/30 08:26:54;;;;;;;9.60;3.00;;;;;;;10.26;78.84;99289.09;5094890;28;20082;-74
2020/12/30 08:29:20;;;;;;;6.47;2.35;;;;;;;10.35;78.81;99289.59;5094819;28;20040;-74
2020/12/30 08:31:51;;;;;;;8.60;3.20;;;;;;;10.42;78.52;99284.09;5093783;28;20089;-74
2020/12/30 08:34:23;;;;;;;9.20;3.15;;;;;;;10.58;78.08;99285.81;5093397;28;20474;-74
2020/12/30 08:36:54;;;;;;;6.53;3.38;;;;;;;10.98;75.52;99271.03;5093238;28;20123;-75
2020/12/30 08:39:24;;;;;;;6.68;2.88;;;;;;;10.80;75.57;99268.09;5093912;28;20531;-73
2020/12/30 08:41:57;;;;;;;5.50;2.95;;;;;;;10.99;76.22;99292.91;5093554;28;20545;-73
2020/12/30 08:44:26;;;;;;;4.97;3.50;;;;;;;10.95;76.06;99294.84;5093305;28;20032;-74
2020/12/30 08:46:57;;;;;;;6.63;3.63;;;;;;;11.01;74.48;99292.50;5093121;28;20478;-73
2020/12/30 08:49:24;;;;;;;5.30;2.95;;;;;;;11.80;71.30;99290.94;5094770;28;20111;-74
2020/12/30 08:51:52;;;;;;;2.97;1.80;;;;;;;11.82;70.71;99304.50;5094717;28;20047;-74
2020/12/30 08:54:18;;;;;;;3.95;1.40;;;;;;;11.69;70.50;99281.75;5092910;28;20060;-74
2020/12/30 08:56:45;;;;;;;3.45;1.25;;;;;;;11.71;68.84;99301.66;5093347;28;20039;-74
2020/12/30 08:59:20;;;;;;;6.90;2.60;;;;;;;11.72;70.61;99297.69;5093023;28;20125;-74
2020/12/30 09:01:46;;;;;;;3.83;1.75;;;;;;;11.71;70.56;99290.50;5094387;28;20032;-74
2020/12/30 09:04:12;;;;;;;5.18;2.58;;;;;;;11.73;70.56;99285.34;5092981;28;20054;-74
2020/12/30 09:06:48;;;;;;;7.07;2.00;;;;;;;11.70;70.40;99300.06;5076089;28;20059;-75
2020/12/30 09:09:16;;;;;;;1.95;1.33;;;;;;;11.63;69.43;99302.81;5092888;28;20490;-75
2020/12/30 09:11:50;;;;;;;4.85;1.75;;;;;;;11.55;70.42;99302.75;5093810;28;20028;-74
2020/12/30 09:14:24;;;;;;;4.10;1.15;;;;;;;11.46;70.32;99296.78;5093337;28;20059;-75
2020/12/30 09:16:55;;;;;;;6.25;1.20;;;;;;;11.44;70.33;99299.13;5092636;28;20023;-74
2020/12/30 09:19:20;;;;;;;5.82;2.65;;;;;;;11.33;71.06;99306.63;5094628;28;20031;-74
2020/12/30 09:21:49;;;;;;;7.95;1.77;;;;;;;11.30;71.68;99307.44;5092416;28;20028;-76
2020/12/30 09:24:16;;;;;;;4.55;2.30;;;;;;;11.21;71.13;99323.66;5092601;28;20032;-74
2020/12/30 09:26:41;;;;;;;6.45;1.63;;;;;;;11.05;71.75;99312.03;5094185;28;20466;-76
2020/12/30 09:29:21;;;;;;;2.63;1.38;;;;;;;10.94;71.44;99315.53;5092612;28;20077;-74
2020/12/30 09:31:51;;;;;;;1.52;1.25;;;;;;;10.95;71.95;99297.63;5094185;28;20035;-74
2020/12/30 09:34:20;;;;;;;3.17;1.00;;;;;;;11.10;72.43;99300.53;5092127;28;20038;-74
2020/12/30 09:36:52;;;;;;;2.92;1.45;;;;;;;12.09;69.36;99297.44;5093879;28;20032;-74
2020/12/30 09:39:20;;;;;;;6.18;2.00;;;;;;;12.77;67.01;99295.50;5092504;28;20496;-74
2020/12/30 09:41:46;;;;;;;6.47;1.20;;;;;;;13.40;63.50;99298.66;5092411;28;20032;-74
2020/12/30 09:44:11;;;;;;;6.57;2.00;;;;;;;13.73;62.70;99293.75;5092253;28;20523;-75
2020/12/30 09:46:47;;;;;;;5.38;2.25;;;;;;;13.34;63.79;99289.09;5092232;28;20020;-74
2020/12/30 09:49:13;;;;;;;5.85;2.90;;;;;;;13.20;64.36;99289.88;5092227;28;20470;-74
2020/12/30 09:51:38;;;;;;;6.00;2.60;;;;;;;12.91;66.07;99286.34;5092495;28;20080;-74
2020/12/30 09:54:04;;;;;;;6.30;1.85;;;;;;;13.34;65.96;99280.69;5097178;28;20094;-75
2020/12/30 09:56:29;;;;;;;7.63;2.65;;;;;;;13.58;65.83;99291.03;5095537;28;20028;-75
2020/12/30 09:58:55;;;;;;;8.27;1.77;;;;;;;13.88;63.21;99284.88;5095651;28;20092;-75
2020/12/30 10:01:23;;;;;;;2.90;1.13;;;;;;;14.16;63.08;99274.75;5113579;28;20028;-74
2020/12/30 10:03:51;;;;;;;2.47;1.42;;;;;;;14.24;63.07;99300.69;5096006;28;20028;-75
2020/12/30 10:06:17;;;;;;;10.85;2.38;;;;;;;14.12;61.72;99282.38;5095032;28;20059;-74
2020/12/30 10:08:42;;;;;;;11.70;2.30;;;;;;;14.01;61.88;99298.41;5095355;28;20082;-74
2020/12/30 10:11:08;;;;;;;8.35;1.95;;;;;;;13.82;62.53;99297.69;5095028;28;20028;-74
2020/12/30 10:13:33;;;;;;;12.43;3.00;;;;;;;13.49;62.40;99285.06;5096026;28;20065;-75
2020/12/30 10:16:01;;;;;;;7.57;1.95;;;;;;;13.22;62.11;99295.09;5098997;28;20066;-74
2020/12/30 10:18:27;;;;;;;10.48;2.05;;;;;;;13.46;63.11;99279.47;5098798;28;20445;-76
2020/12/30 10:20:53;;;;;;;10.88;2.33;;;;;;;13.67;64.32;99284.97;5117600;28;20134;-74
2020/12/30 10:23:22;;;;;;;7.78;2.13;;;;;;;14.01;62.24;99271.25;5115887;28;20027;-75
2020/12/30 10:25:47;;;;;;;7.20;2.85;;;;;;;14.78;60.90;99285.13;5116074;28;20397;-76
2020/12/30 10:28:13;;;;;;;6.72;2.17;;;;;;;15.25;58.99;99281.88;5098901;28;20036;-74
2020/12/30 10:30:38;;;;;;;5.82;2.95;;;;;;;15.29;58.24;99255.41;5098990;28;20153;-74
2020/12/30 10:33:04;;;;;;;7.63;1.65;;;;;;;15.52;56.02;99268.78;5115707;28;20034;-74
2020/12/30 10:35:32;;;;;;;7.22;1.45;;;;;;;15.22;56.74;99257.50;5098902;28;20027;-74
2020/12/30 10:37:57;;;;;;;17.40;1.95;;;;;;;14.73;58.08;99271.56;5116743;28;20385;-74
2020/12/30 10:40:23;;;;;;;9.38;2.03;;;;;;;14.16;58.14;99271.94;5098817;28;20024;-74
2020/12/30 10:42:48;;;;;;;7.95;2.15;;;;;;;14.05;57.89;99266.41;5098664;28;20031;-74
2020/12/30 10:45:14;;;;;;;7.85;1.80;;;;;;;14.28;57.73;99262.28;5098679;28;20042;-74
2020/12/30 10:47:40;;;;;;;6.82;1.70;;;;;;;14.14;57.48;99261.16;5098380;28;20462;-74
2020/12/30 10:50:06;;;;;;;6.80;1.92;;;;;;;14.26;55.65;99262.69;5098311;28;20042;-74
2020/12/30 10:52:32;;;;;;;10.45;1.90;;;;;;;14.50;55.24;99252.56;5098766;28;20032;-74
2020/12/30 10:54:57;;;;;;;3.58;1.10;;;;;;;14.66;55.85;99250.03;5115035;28;20402;-74
2020/12/30 10:57:25;;;;;;;4.95;1.58;;;;;;;15.37;54.01;99247.72;5098651;28;20140;-75
2020/12/30 10:59:50;;;;;;;5.40;2.65;;;;;;;15.16;56.14;99246.75;5098366;28;20059;-74
2020/12/30 11:02:16;;;;;;;8.35;2.35;;;;;;;14.94;57.20;99248.97;5098467;28;20446;-74
2020/12/30 11:04:42;;;;;;;6.40;2.08;;;;;;;14.70;58.15;99249.19;5098109;28;20473;-74
2020/12/30 11:07:09;;;;;;;7.15;2.08;;;;;;;14.47;58.50;99242.19;5098351;28;20458;-75
2020/12/30 11:09:35;;;;;;;7.10;2.38;;;;;;;14.39;58.48;99252.63;5115418;28;20035;-72
2020/12/30 11:12:00;;;;;;;5.10;1.27;;;;;;;13.86;59.04;99248.16;5116563;28;20024;-72
2020/12/30 11:14:27;;;;;;;6.15;2.17;;;;;;;14.07;59.73;99224.88;5098227;28;20035;-71
2020/12/30 11:16:55;;;;;;;5.95;2.17;;;;;;;14.22;59.56;99241.53;5097735;28;20019;-73
2020/12/30 11:19:20;;;;;;;8.20;1.98;;;;;;;13.96;59.66;99245.72;5098667;28;20370;-73
2020/12/30 11:21:53;;;;;;;7.35;2.25;;;;;;;13.85;60.16;99223.41;5115859;28;20032;-73
2020/12/30 11:24:19;;;;;;;12.82;8.32;;;;;;;14.07;60.50;99235.25;5115901;28;20054;-73
2020/12/30 11:26:48;;;;;;;10.48;5.25;;;;;;;14.04;61.11;99247.25;5097675;28;20493;-73
2020/12/30 11:29:14;;;;;;;11.27;4.38;;;;;;;14.07;60.50;99247.25;5098103;28;20032;-73
2020/12/30 11:31:39;;;;;;;5.70;2.40;;;;;;;14.81;58.47;99241.50;5097799;28;20023;-73
2020/12/30 11:34:05;;;;;;;5.75;2.60;;;;;;;15.15;58.01;99253.56;5097805;28;20028;-74
2020/12/30 11:36:31;;;;;;;6.28;3.17;;;;;;;15.16;57.19;99243.94;5097638;28;20023;-73
2020/12/30 11:38:58;;;;;;;5.72;1.98;;;;;;;14.83;56.96;99239.06;5114306;28;20084;-74